createdAt,value
2019-01-10T00:01:49.536Z,30.30
2019-01-10T00:04:20.244Z,25.57
2019-01-10T00:09:39.681Z,31.00
2019-01-10T00:12:09.956Z,27.93
2019-01-10T00:14:40.101Z,25.10
2019-01-10T00:17:10.257Z,28.93
2019-01-10T00:19:40.538Z,27.53
2019-01-10T00:22:10.779Z,27.80
2019-01-10T00:24:40.953Z,30.90
2019-01-10T00:27:11.101Z,29.23
2019-01-10T00:29:41.347Z,26.63
2019-01-10T00:32:11.625Z,30.70
2019-01-10T00:34:41.788Z,26.90
2019-01-10T00:37:11.939Z,24.47
2019-01-10T00:39:42.197Z,25.87
2019-01-10T00:42:12.460Z,30.13
2019-01-10T00:44:42.614Z,31.70
2019-01-10T00:47:12.881Z,24.70
2019-01-10T00:49:43.038Z,25.97
2019-01-10T00:52:13.209Z,27.20
2019-01-10T00:54:43.457Z,30.57
2019-01-10T00:57:13.710Z,26.60
2019-01-10T00:59:43.869Z,30.80
2019-01-10T01:02:14.022Z,28.00
2019-01-10T01:04:44.294Z,29.80
2019-01-10T01:07:14.551Z,27.63
2019-01-10T01:12:20.541Z,24.70
2019-01-10T01:14:50.905Z,26.00
2019-01-10T01:17:21.171Z,23.50
2019-01-10T01:19:51.392Z,27.57
2019-01-10T01:22:21.563Z,27.50
2019-01-10T01:24:51.786Z,25.13
2019-01-10T01:27:21.978Z,24.87
2019-01-10T01:29:52.221Z,23.70
2019-01-10T01:32:22.504Z,28.80
2019-01-10T01:34:52.696Z,23.67
2019-01-10T01:37:22.891Z,24.47
2019-01-10T01:42:52.469Z,25.87
2019-01-10T01:45:22.708Z,25.50
2019-01-10T01:47:52.879Z,24.97
2019-01-10T01:50:24.648Z,28.97
2019-01-10T01:52:55.037Z,26.00
2019-01-10T01:55:25.275Z,30.37
2019-01-10T01:57:55.457Z,28.90
2019-01-10T02:00:26.186Z,28.37
2019-01-10T02:02:56.439Z,28.60
2019-01-10T02:05:26.671Z,28.40
2019-01-10T02:07:56.857Z,27.60
2019-01-10T02:10:29.121Z,30.50
2019-01-10T02:12:59.532Z,27.77
2019-01-10T02:15:29.728Z,27.57
2019-01-10T02:17:59.998Z,29.17
2019-01-10T02:20:30.319Z,29.33
2019-01-10T02:23:00.504Z,29.50
2019-01-10T02:25:30.870Z,34.70
2019-01-10T02:28:01.131Z,27.47
2019-01-10T02:30:31.386Z,31.73
2019-01-10T02:33:01.557Z,31.67
2019-01-10T02:35:31.728Z,31.67
2019-01-10T02:38:01.981Z,29.30
2019-01-10T02:40:32.237Z,27.20
2019-01-10T02:43:02.488Z,30.40
2019-01-10T02:45:32.799Z,34.93
2019-01-10T02:48:03.206Z,26.63
2019-01-10T02:50:33.480Z,25.47
2019-01-10T02:53:03.722Z,26.93
2019-01-10T02:55:33.974Z,26.07
2019-01-10T02:58:04.234Z,25.87
2019-01-10T03:00:34.408Z,27.23
2019-01-10T03:06:02.504Z,23.33
2019-01-10T03:08:32.689Z,29.00
2019-01-10T03:11:02.883Z,26.07
2019-01-10T03:13:36.823Z,25.33
2019-01-10T03:16:05.285Z,27.00
2019-01-10T03:18:35.545Z,24.03
2019-01-10T03:21:05.918Z,30.20
2019-01-10T03:23:36.189Z,32.03
2019-01-10T03:26:06.469Z,28.53
2019-01-10T03:28:36.659Z,27.97
2019-01-10T03:31:06.929Z,28.00
2019-01-10T03:33:37.058Z,27.53
2019-01-10T03:36:07.210Z,29.20
2019-01-10T03:38:37.453Z,30.17
2019-01-10T03:41:07.700Z,27.93
2019-01-10T03:43:46.435Z,27.63
2019-01-10T03:48:46.035Z,27.80
2019-01-10T03:51:16.322Z,27.30
2019-01-10T03:53:46.463Z,28.77
2019-01-10T03:56:16.636Z,29.00
2019-01-10T03:58:46.891Z,30.27
2019-01-10T04:01:17.171Z,28.63
2019-01-10T04:03:47.322Z,28.77
2019-01-10T04:06:17.459Z,28.37
2019-01-10T04:08:47.716Z,32.20
2019-01-10T04:11:17.917Z,32.80
2019-01-10T04:13:57.024Z,30.43
2019-01-10T04:16:20.354Z,31.07
2019-01-10T04:18:50.627Z,28.20
2019-01-10T04:21:20.811Z,29.00
2019-01-10T04:23:53.837Z,30.10
2019-01-10T04:26:24.115Z,32.30
2019-01-10T04:28:54.268Z,33.87
2019-01-10T04:31:24.518Z,31.77
2019-01-10T04:33:54.776Z,31.10
2019-01-10T04:36:25.031Z,34.03
2019-01-10T04:38:55.192Z,30.33
2019-01-10T04:41:25.355Z,32.90
2019-01-10T04:43:55.627Z,35.00
2019-01-10T04:46:25.872Z,30.40
2019-01-10T04:48:56.023Z,34.57
2019-01-10T04:51:26.279Z,36.33
2019-01-10T04:53:56.450Z,34.80
2019-01-10T04:56:26.625Z,32.10
2019-01-10T04:58:56.886Z,33.50
2019-01-10T05:01:27.149Z,30.17
2019-01-10T05:03:57.310Z,36.60
2019-01-10T05:06:27.509Z,37.13
2019-01-10T05:08:57.787Z,37.70
2019-01-10T05:11:28.034Z,36.80
2019-01-10T05:13:58.192Z,35.03
2019-01-10T05:16:28.471Z,33.43
2019-01-10T05:18:58.752Z,34.57
2019-01-10T05:21:29.011Z,36.27
2019-01-10T05:23:59.161Z,38.40
2019-01-10T05:26:29.317Z,34.40
2019-01-10T05:28:59.570Z,35.80
2019-01-10T05:31:29.861Z,35.50
2019-01-10T05:34:00.081Z,37.73
2019-01-10T05:36:30.373Z,105.50
2019-01-10T05:39:00.716Z,52.57
2019-01-10T05:41:30.998Z,249.30
2019-01-10T05:44:01.168Z,105.30
2019-01-10T05:46:31.336Z,135.30
2019-01-10T05:49:01.610Z,46.07
2019-01-10T05:51:31.893Z,59.40
2019-01-10T05:54:02.113Z,50.00
2019-01-10T05:56:32.301Z,47.07
2019-01-10T05:59:02.576Z,45.50
2019-01-10T06:01:32.943Z,40.90
2019-01-10T06:15:45.079Z,38.33
2019-01-10T06:18:15.396Z,45.40
2019-01-10T06:20:45.570Z,43.00
2019-01-10T06:23:17.971Z,40.60
2019-01-10T06:25:47.989Z,42.80
2019-01-10T06:28:18.175Z,42.63
2019-01-10T06:30:48.400Z,39.33
2019-01-10T06:33:18.669Z,42.67
2019-01-10T06:35:48.934Z,42.77
2019-01-10T06:38:19.080Z,50.23
2019-01-10T06:40:49.252Z,65.27
2019-01-10T06:43:19.509Z,56.23
2019-01-10T06:45:49.770Z,64.87
2019-01-10T06:48:19.946Z,65.97
2019-01-10T06:50:50.116Z,67.97
2019-01-10T06:56:44.667Z,65.73
2019-01-10T06:59:15.016Z,57.63
2019-01-10T07:01:45.400Z,55.23
2019-01-10T07:04:15.569Z,60.17
2019-01-10T07:06:45.761Z,67.00
2019-01-10T07:09:16.056Z,64.90
2019-01-10T07:11:46.339Z,70.97
2019-01-10T07:14:16.499Z,75.50
2019-01-10T07:16:53.603Z,83.37
2019-01-10T07:19:57.758Z,81.67
2019-01-10T07:22:28.133Z,88.40
2019-01-10T07:24:58.297Z,86.50
2019-01-10T07:27:28.599Z,88.33
2019-01-10T07:29:59.704Z,73.00
2019-01-10T07:32:31.131Z,58.90
2019-01-10T07:35:03.228Z,66.60
2019-01-10T07:37:33.474Z,55.67
2019-01-10T07:40:03.728Z,54.17
2019-01-10T07:42:52.772Z,50.50
2019-01-10T07:45:44.161Z,49.10
2019-01-10T07:48:14.540Z,50.57
2019-01-10T07:50:44.701Z,56.50
2019-01-10T07:53:14.873Z,76.17
2019-01-10T07:55:45.219Z,67.47
2019-01-10T07:58:15.454Z,62.03
2019-01-10T08:00:45.649Z,62.70
2019-01-10T08:03:15.852Z,73.53
2019-01-10T08:05:46.108Z,82.90
2019-01-10T08:08:16.369Z,69.90
2019-01-10T08:10:46.610Z,67.50
2019-01-10T08:13:16.771Z,67.87
2019-01-10T08:15:47.045Z,61.47
2019-01-10T08:18:17.293Z,63.10
2019-01-10T08:20:47.462Z,65.00
2019-01-10T08:23:17.719Z,70.27
2019-01-10T08:25:47.979Z,69.13
2019-01-10T08:28:18.254Z,78.90
2019-01-10T08:30:48.411Z,86.83
2019-01-10T08:33:18.635Z,83.87
2019-01-10T08:35:48.891Z,73.20
2019-01-10T08:38:19.162Z,70.37
2019-01-10T08:40:49.312Z,69.87
2019-01-10T08:43:19.492Z,70.03
2019-01-10T08:45:56.981Z,63.83
2019-01-10T08:48:27.371Z,65.67
2019-01-10T08:50:57.680Z,144.03
2019-01-10T08:53:27.932Z,134.83
2019-01-10T08:55:58.286Z,136.67
2019-01-10T08:58:28.524Z,208.97
2019-01-10T09:00:58.700Z,149.67
2019-01-10T09:03:28.956Z,87.87
2019-01-10T09:06:07.853Z,82.53
2019-01-10T09:08:31.143Z,72.20
2019-01-10T09:11:01.389Z,79.43
2019-01-10T09:13:31.653Z,133.73
2019-01-10T09:16:01.979Z,72.80
2019-01-10T09:18:32.256Z,72.60
2019-01-10T09:21:04.462Z,76.50
2019-01-10T09:23:34.687Z,65.53
2019-01-10T09:26:04.975Z,58.20
2019-01-10T09:28:35.151Z,60.40
2019-01-10T09:31:05.387Z,85.93
2019-01-10T09:33:35.656Z,75.60
2019-01-10T09:36:05.821Z,80.87
2019-01-10T09:38:36.009Z,135.47
2019-01-10T09:41:06.339Z,62.83
2019-01-10T09:43:36.516Z,63.53
2019-01-10T09:46:06.895Z,56.50
2019-01-10T09:48:37.155Z,57.97
2019-01-10T09:51:07.329Z,73.93
2019-01-10T09:53:37.498Z,80.27
2019-01-10T09:56:07.852Z,58.10
2019-01-10T09:58:38.106Z,53.30
2019-01-10T10:01:08.327Z,56.07
2019-01-10T10:03:38.506Z,48.33
2019-01-10T10:06:08.843Z,39.70
2019-01-10T10:08:39.158Z,39.83
2019-01-10T10:11:09.334Z,42.53
2019-01-10T10:13:39.521Z,42.73
2019-01-10T10:16:09.796Z,40.47
2019-01-10T10:18:40.059Z,37.67
2019-01-10T10:21:10.260Z,41.00
2019-01-10T10:23:41.136Z,44.07
2019-01-10T10:26:12.804Z,38.67
2019-01-10T10:28:43.016Z,40.57
2019-01-10T10:31:13.304Z,28.90
2019-01-10T10:33:43.595Z,31.00
2019-01-10T10:36:13.811Z,40.47
2019-01-10T10:38:43.974Z,42.43
2019-01-10T10:41:14.248Z,45.67
2019-01-10T10:43:44.491Z,39.23
2019-01-10T10:46:14.665Z,45.33
2019-01-10T10:48:44.992Z,51.13
2019-01-10T10:51:15.275Z,51.27
2019-01-10T10:53:45.528Z,59.03
2019-01-10T10:56:15.729Z,55.40
2019-01-10T10:58:45.910Z,66.20
2019-01-10T11:01:16.202Z,69.73
2019-01-10T11:03:46.481Z,65.60
2019-01-10T11:06:16.680Z,64.20
2019-01-10T11:08:46.898Z,58.67
2019-01-10T11:11:17.174Z,57.53
2019-01-10T11:13:47.470Z,63.90
2019-01-10T11:16:17.647Z,73.33
2019-01-10T11:18:47.863Z,76.53
2019-01-10T11:21:18.153Z,80.70
2019-01-10T11:26:24.512Z,89.37
2019-01-10T11:28:54.752Z,79.73
2019-01-10T11:31:25.024Z,89.93
2019-01-10T11:37:14.634Z,87.70
2019-01-10T11:39:44.847Z,86.20
2019-01-10T11:42:15.137Z,81.33
2019-01-10T11:44:45.316Z,76.10
2019-01-10T11:47:15.575Z,76.73
2019-01-10T11:49:45.851Z,80.53
2019-01-10T11:52:16.000Z,68.20
2019-01-10T11:54:46.166Z,63.10
2019-01-10T11:57:16.435Z,69.20
2019-01-10T11:59:46.712Z,48.67
2019-01-10T12:02:16.905Z,50.43
2019-01-10T12:04:47.065Z,43.57
2019-01-10T12:07:17.352Z,46.00
2019-01-10T12:09:47.646Z,41.00
2019-01-10T12:12:17.803Z,41.30
2019-01-10T12:14:47.976Z,36.10
2019-01-10T12:17:18.245Z,44.77
2019-01-10T12:19:48.497Z,40.53
2019-01-10T12:22:18.643Z,38.53
2019-01-10T12:24:48.883Z,38.80
2019-01-10T12:27:19.032Z,40.57
2019-01-10T12:29:49.214Z,29.10
2019-01-10T12:32:19.473Z,28.90
2019-01-10T12:34:49.758Z,30.30
2019-01-10T12:37:20.042Z,34.73
2019-01-10T12:39:50.504Z,33.07
2019-01-10T12:42:20.753Z,32.50
2019-01-10T12:44:51.014Z,36.87
2019-01-10T12:47:21.301Z,39.03
2019-01-10T12:49:51.477Z,43.17
2019-01-10T12:52:21.850Z,48.47
2019-01-10T12:54:52.117Z,43.63
2019-01-10T12:57:22.286Z,43.73
2019-01-10T12:59:52.448Z,47.70
2019-01-10T13:02:22.697Z,43.53
2019-01-10T13:04:52.860Z,49.03
2019-01-10T13:07:23.135Z,57.70
2019-01-10T13:09:53.417Z,54.73
2019-01-10T13:12:23.567Z,56.40
2019-01-10T13:14:53.728Z,45.03
2019-01-10T13:17:23.986Z,36.17
2019-01-10T13:19:54.220Z,40.37
2019-01-10T13:22:24.351Z,44.50
2019-01-10T13:24:54.530Z,47.27
2019-01-10T13:27:24.854Z,33.87
2019-01-10T13:29:55.124Z,41.00
2019-01-10T13:32:25.389Z,52.47
2019-01-10T13:34:55.558Z,45.70
2019-01-10T13:37:25.937Z,45.10
2019-01-10T13:39:56.221Z,49.23
2019-01-10T13:42:26.385Z,76.23
2019-01-10T13:44:56.696Z,68.37
2019-01-10T13:47:26.856Z,79.73
2019-01-10T13:49:57.033Z,69.20
2019-01-10T13:52:27.339Z,82.60
2019-01-10T13:54:57.610Z,53.77
2019-01-10T13:57:28.209Z,54.33
2019-01-10T14:02:35.417Z,68.83
2019-01-10T14:05:30.623Z,74.50
2019-01-10T14:08:01.074Z,42.63
2019-01-10T14:10:31.345Z,57.37
2019-01-10T14:13:01.594Z,42.70
2019-01-10T14:18:31.472Z,41.93
2019-01-10T14:21:01.628Z,41.20
2019-01-10T14:23:31.790Z,44.17
2019-01-10T14:26:02.057Z,48.83
2019-01-10T14:28:32.305Z,50.07
2019-01-10T14:33:53.587Z,50.50
2019-01-10T14:36:23.744Z,52.70
2019-01-10T14:38:53.896Z,52.07
2019-01-10T14:41:24.144Z,44.93
2019-01-10T14:43:54.398Z,45.13
2019-01-10T14:46:24.558Z,48.50
2019-01-10T14:48:54.846Z,65.57
2019-01-10T14:51:25.111Z,55.67
2019-01-10T14:53:55.359Z,55.47
2019-01-10T14:56:25.507Z,55.93
2019-01-10T14:58:55.671Z,55.53
2019-01-10T15:01:25.949Z,61.80
2019-01-10T15:03:56.219Z,71.50
2019-01-10T15:06:26.398Z,72.60
2019-01-10T15:08:56.661Z,56.60
2019-01-10T15:11:26.830Z,54.80
2019-01-10T15:13:57.025Z,67.60
2019-01-10T15:16:27.305Z,67.17
2019-01-10T15:18:57.592Z,63.23
2019-01-10T15:21:27.765Z,57.73
2019-01-10T15:23:57.945Z,55.00
2019-01-10T15:26:28.272Z,60.77
2019-01-10T15:28:58.522Z,64.50
2019-01-10T15:31:28.746Z,67.97
2019-01-10T15:33:59.325Z,67.57
2019-01-10T15:36:29.593Z,66.10
2019-01-10T15:38:59.858Z,67.63
2019-01-10T15:41:30.145Z,100.73
2019-01-10T15:44:00.219Z,109.57
2019-01-10T15:46:30.478Z,122.27
2019-01-10T15:49:00.700Z,122.70
2019-01-10T15:51:30.969Z,131.90
2019-01-10T15:54:01.252Z,132.03
2019-01-10T15:56:31.410Z,141.10
2019-01-10T15:59:01.568Z,137.03
2019-01-10T16:01:31.829Z,135.37
2019-01-10T16:04:07.320Z,125.07
2019-01-10T16:06:34.079Z,175.33
2019-01-10T16:09:24.391Z,164.33
2019-01-10T16:11:54.848Z,167.23
2019-01-10T16:14:25.105Z,169.63
2019-01-10T16:16:55.279Z,133.67
2019-01-10T16:19:25.424Z,88.83
2019-01-10T16:21:55.683Z,65.20
2019-01-10T16:24:25.905Z,43.10
2019-01-10T16:26:56.047Z,54.10
2019-01-10T16:29:26.205Z,51.97
2019-01-10T16:31:56.469Z,52.17
2019-01-10T16:34:26.716Z,52.47
2019-01-10T16:36:56.918Z,60.57
2019-01-10T16:39:27.154Z,63.37
2019-01-10T16:41:57.411Z,97.07
2019-01-10T16:44:27.678Z,67.20
2019-01-10T16:46:57.855Z,85.33
2019-01-10T16:49:28.036Z,83.10
2019-01-10T16:51:58.305Z,78.33
2019-01-10T16:54:28.575Z,100.17
2019-01-10T16:56:58.728Z,79.50
2019-01-10T16:59:28.868Z,61.53
2019-01-10T17:01:59.135Z,68.80
2019-01-10T17:04:29.405Z,73.20
2019-01-10T17:06:59.573Z,83.70
2019-01-10T17:09:29.848Z,77.07
2019-01-10T17:14:35.665Z,76.40
2019-01-10T17:17:06.049Z,75.40
2019-01-10T17:19:36.326Z,57.50
2019-01-10T17:25:25.568Z,61.00
2019-01-10T17:27:55.892Z,57.57
2019-01-10T17:30:31.299Z,83.63
2019-01-10T17:33:02.292Z,94.70
2019-01-10T17:35:34.084Z,107.17
2019-01-10T17:41:02.858Z,98.93
2019-01-10T17:43:33.230Z,101.63
2019-01-10T17:46:03.500Z,112.93
2019-01-10T17:48:33.672Z,109.60
2019-01-10T17:51:03.987Z,118.67
2019-01-10T17:53:34.158Z,106.17
2019-01-10T17:56:04.422Z,134.20
2019-01-10T17:58:34.708Z,137.30
2019-01-10T18:04:10.846Z,115.67
2019-01-10T18:06:41.207Z,114.30
2019-01-10T18:09:11.570Z,92.03
2019-01-10T18:11:41.734Z,88.40
2019-01-10T18:14:11.887Z,89.30
2019-01-10T18:16:42.147Z,87.00
2019-01-10T18:19:12.412Z,70.40
2019-01-10T18:21:42.579Z,68.03
2019-01-10T18:24:12.743Z,76.00
2019-01-10T18:26:43.012Z,56.40
2019-01-10T18:29:13.249Z,89.23
2019-01-10T18:31:43.400Z,107.63
2019-01-10T18:34:13.651Z,97.67
2019-01-10T18:36:43.875Z,74.40
2019-01-10T18:39:14.044Z,73.93
2019-01-10T18:41:44.304Z,61.30
2019-01-10T18:44:14.657Z,59.77
2019-01-10T18:46:44.812Z,66.63
2019-01-10T18:49:14.966Z,73.87
2019-01-10T18:51:45.210Z,84.80
2019-01-10T18:54:15.472Z,80.20
2019-01-10T18:56:45.611Z,72.37
2019-01-10T18:59:15.768Z,69.70
2019-01-10T19:01:46.048Z,69.97
2019-01-10T19:06:52.365Z,52.83
2019-01-10T19:09:22.652Z,66.50
2019-01-10T19:11:52.909Z,61.30
2019-01-10T19:14:23.087Z,53.73
2019-01-10T19:16:53.475Z,39.83
2019-01-10T19:19:23.728Z,33.90
2019-01-10T19:21:53.922Z,32.80
2019-01-10T19:24:24.068Z,30.00
2019-01-10T19:26:54.328Z,39.30
2019-01-10T19:29:24.587Z,45.60
2019-01-10T19:31:54.746Z,59.33
2019-01-10T19:34:24.898Z,72.90
2019-01-10T19:36:55.151Z,72.83
2019-01-10T19:39:25.426Z,65.03
2019-01-10T19:41:55.588Z,70.60
2019-01-10T19:44:25.781Z,57.33
2019-01-10T19:46:56.046Z,57.13
2019-01-10T19:49:26.290Z,64.33
2019-01-10T19:51:56.443Z,59.77
2019-01-10T19:54:26.710Z,71.10
2019-01-10T19:56:56.853Z,80.43
2019-01-10T19:59:27.019Z,104.33
2019-01-10T20:01:57.280Z,84.70
2019-01-10T20:04:27.640Z,91.90
2019-01-10T20:06:58.089Z,79.87
2019-01-10T20:09:30.048Z,82.37
2019-01-10T20:12:00.555Z,104.07
2019-01-10T20:14:31.005Z,110.37
2019-01-10T20:17:01.219Z,114.17
2019-01-10T20:19:31.446Z,125.60
2019-01-10T20:22:01.782Z,122.10
2019-01-10T20:27:22.917Z,105.83
2019-01-10T20:29:53.253Z,60.00
2019-01-10T20:35:24.278Z,33.63
2019-01-10T20:37:54.714Z,35.30
2019-01-10T20:40:24.969Z,45.23
2019-01-10T20:42:55.224Z,40.80
2019-01-10T20:45:25.364Z,34.27
2019-01-10T20:50:52.520Z,25.67
2019-01-10T20:53:22.937Z,26.23
2019-01-10T20:55:53.083Z,23.13
2019-01-10T20:58:41.955Z,25.67
2019-01-10T21:01:12.296Z,22.83
2019-01-10T21:03:42.717Z,24.80
2019-01-10T21:06:12.957Z,23.20
2019-01-10T21:08:43.121Z,18.97
2019-01-10T21:11:13.439Z,16.10
2019-01-10T21:13:43.766Z,19.17
2019-01-10T21:16:13.953Z,12.03
2019-01-10T21:18:44.267Z,15.97
2019-01-10T21:21:14.424Z,12.30
2019-01-10T21:23:44.595Z,11.00
2019-01-10T21:26:14.847Z,2.37
2019-01-10T21:28:45.110Z,5.87
2019-01-10T21:31:15.397Z,7.00
2019-01-10T21:33:45.639Z,10.50
2019-01-10T21:36:15.969Z,6.77
2019-01-10T21:38:46.213Z,6.50
2019-01-10T21:41:16.376Z,9.17
2019-01-10T21:43:46.529Z,6.53
2019-01-10T21:51:51.233Z,5.57
2019-01-10T21:57:12.221Z,8.53
2019-01-10T21:59:42.566Z,7.23
2019-01-10T22:02:12.893Z,6.53
2019-01-10T22:04:43.125Z,12.40
2019-01-10T22:07:13.690Z,16.00
2019-01-10T22:09:43.976Z,12.73
2019-01-10T22:12:14.325Z,14.60
2019-01-10T22:14:44.529Z,11.40
2019-01-10T22:17:14.724Z,9.97
2019-01-10T22:19:44.969Z,9.90
2019-01-10T22:22:15.173Z,8.90
2019-01-10T22:27:36.237Z,6.93
2019-01-10T22:33:18.392Z,9.60
2019-01-10T22:35:48.650Z,14.60
2019-01-10T22:38:18.924Z,23.10
2019-01-10T22:40:49.136Z,22.40
2019-01-10T22:43:19.358Z,23.07
2019-01-10T22:45:49.614Z,24.00
2019-01-10T22:48:19.830Z,22.17
2019-01-10T22:50:50.089Z,25.27
2019-01-10T22:56:11.540Z,22.57
2019-01-10T22:58:41.887Z,25.20
2019-01-10T23:04:39.616Z,15.40
2019-01-10T23:10:25.582Z,12.87
2019-01-10T23:12:55.891Z,10.47
2019-01-10T23:18:24.039Z,11.33
2019-01-10T23:23:46.227Z,9.93
2019-01-10T23:26:16.526Z,9.00
2019-01-10T23:28:46.710Z,7.77
2019-01-10T23:31:18.524Z,7.53
2019-01-10T23:33:48.754Z,8.07
2019-01-10T23:36:18.963Z,9.20
2019-01-10T23:41:46.729Z,5.70
2019-01-10T23:44:16.994Z,7.27
2019-01-10T23:46:47.222Z,15.27
2019-01-10T23:49:17.545Z,9.10
2019-01-10T23:51:47.805Z,10.03
2019-01-10T23:57:17.474Z,10.47
2019-01-10T23:59:50.770Z,8.23
